createdAt,value
2023-03-02T00:01:10.124Z,16.70
2023-03-02T00:03:39.054Z,16.35
2023-03-02T00:06:06.560Z,17.30
2023-03-02T00:08:33.947Z,12.30
2023-03-02T00:11:01.259Z,20.98
2023-03-02T00:13:30.161Z,16.75
2023-03-02T00:15:56.580Z,17.33
2023-03-02T00:18:23.249Z,17.98
2023-03-02T00:20:49.584Z,15.05
2023-03-02T00:23:15.978Z,17.23
2023-03-02T00:25:42.825Z,18.95
2023-03-02T00:28:09.207Z,14.52
2023-03-02T00:30:37.320Z,16.70
2023-03-02T00:33:03.746Z,20.58
2023-03-02T00:35:30.314Z,21.25
2023-03-02T00:37:56.918Z,17.27
2023-03-02T00:40:23.539Z,15.10
2023-03-02T00:42:50.097Z,14.15
2023-03-02T00:45:16.458Z,18.85
2023-03-02T00:47:42.894Z,15.85
2023-03-02T00:50:10.340Z,18.17
2023-03-02T00:52:36.711Z,11.20
2023-03-02T00:55:03.191Z,13.90
2023-03-02T00:57:29.791Z,15.10
2023-03-02T00:59:56.192Z,17.33
2023-03-02T01:02:22.625Z,15.55
2023-03-02T01:04:49.329Z,19.30
2023-03-02T01:07:18.206Z,15.88
2023-03-02T01:09:45.468Z,16.17
2023-03-02T01:12:12.052Z,14.18
2023-03-02T01:14:42.042Z,15.18
2023-03-02T01:17:09.868Z,15.95
2023-03-02T01:19:36.899Z,18.40
2023-03-02T01:22:04.914Z,16.27
2023-03-02T01:24:32.190Z,15.23
2023-03-02T01:26:58.785Z,16.63
2023-03-02T01:29:25.487Z,16.30
2023-03-02T01:31:52.229Z,17.35
2023-03-02T01:34:18.710Z,17.38
2023-03-02T01:36:45.524Z,19.70
2023-03-02T01:39:16.122Z,19.65
2023-03-02T01:41:44.799Z,18.35
2023-03-02T01:44:42.007Z,15.73
2023-03-02T01:47:17.687Z,13.45
2023-03-02T01:49:54.981Z,17.45
2023-03-02T01:52:21.841Z,17.35
2023-03-02T01:54:49.986Z,21.23
2023-03-02T01:57:23.772Z,21.90
2023-03-02T01:59:56.520Z,22.80
2023-03-02T02:02:23.535Z,15.80
2023-03-02T02:04:51.584Z,18.05
2023-03-02T02:07:18.938Z,16.58
2023-03-02T02:09:51.490Z,18.25
2023-03-02T02:12:23.473Z,18.48
2023-03-02T02:14:50.362Z,19.23
2023-03-02T02:17:18.393Z,15.63
2023-03-02T02:20:07.214Z,15.68
2023-03-02T02:22:48.079Z,15.05
2023-03-02T02:25:36.598Z,17.48
2023-03-02T02:28:08.468Z,22.25
2023-03-02T02:30:38.026Z,20.20
2023-03-02T02:33:05.764Z,14.68
2023-03-02T02:35:36.661Z,17.00
2023-03-02T02:38:06.236Z,16.40
2023-03-02T02:40:55.414Z,16.30
2023-03-02T02:43:23.591Z,16.75
2023-03-02T02:45:54.004Z,16.58
2023-03-02T02:48:26.914Z,15.68
2023-03-02T02:51:00.119Z,17.15
2023-03-02T02:53:43.115Z,21.88
2023-03-02T02:56:11.150Z,15.38
2023-03-02T02:58:43.465Z,16.63
2023-03-02T03:01:17.556Z,15.45
2023-03-02T03:03:53.186Z,21.23
2023-03-02T03:06:25.745Z,15.55
2023-03-02T03:08:56.595Z,18.60
2023-03-02T03:11:26.628Z,16.50
2023-03-02T03:14:02.272Z,16.38
2023-03-02T03:16:31.420Z,14.55
2023-03-02T03:19:05.772Z,17.48
2023-03-02T03:21:32.452Z,14.25
2023-03-02T03:23:59.154Z,17.63
2023-03-02T03:26:25.528Z,16.60
2023-03-02T03:28:51.965Z,16.08
2023-03-02T03:31:18.715Z,14.73
2023-03-02T03:33:45.130Z,15.07
2023-03-02T03:36:11.798Z,15.93
2023-03-02T03:38:38.547Z,13.85
2023-03-02T03:41:05.173Z,16.88
2023-03-02T03:43:32.048Z,16.70
2023-03-02T03:45:58.390Z,15.15
2023-03-02T03:48:24.987Z,15.32
2023-03-02T03:50:51.558Z,15.52
2023-03-02T03:53:19.278Z,13.73
2023-03-02T03:55:45.890Z,19.05
2023-03-02T03:58:12.437Z,14.55
2023-03-02T04:00:38.974Z,12.80
2023-03-02T04:03:05.336Z,15.15
2023-03-02T04:05:33.347Z,19.42
2023-03-02T04:08:02.336Z,17.73
2023-03-02T04:10:29.642Z,13.93
2023-03-02T04:12:56.589Z,14.73
2023-03-02T04:15:23.839Z,18.50
2023-03-02T04:17:51.122Z,17.48
2023-03-02T04:20:21.782Z,20.88
2023-03-02T04:22:51.752Z,15.48
2023-03-02T04:25:21.623Z,14.25
2023-03-02T04:27:50.361Z,13.73
2023-03-02T04:30:20.368Z,15.68
2023-03-02T04:32:47.255Z,14.10
2023-03-02T04:35:14.463Z,13.48
2023-03-02T04:37:42.305Z,18.38
2023-03-02T04:40:10.121Z,17.70
2023-03-02T04:42:36.537Z,16.30
2023-03-02T04:45:04.060Z,16.65
2023-03-02T04:47:30.411Z,16.30
2023-03-02T04:49:58.114Z,13.60
2023-03-02T04:52:25.584Z,10.35
2023-03-02T04:54:52.328Z,21.33
2023-03-02T04:57:18.688Z,15.60
2023-03-02T04:59:45.317Z,15.65
2023-03-02T05:02:11.925Z,18.52
2023-03-02T05:04:40.663Z,16.02
2023-03-02T05:07:07.078Z,18.98
2023-03-02T05:09:33.476Z,20.60
2023-03-02T05:12:00.728Z,15.82
2023-03-02T05:14:27.406Z,20.65
2023-03-02T05:16:54.023Z,15.35
2023-03-02T05:19:20.629Z,18.85
2023-03-02T05:21:47.198Z,17.67
2023-03-02T05:24:14.534Z,15.77
2023-03-02T05:26:41.026Z,13.60
2023-03-02T05:29:07.630Z,15.70
2023-03-02T05:31:37.526Z,15.27
2023-03-02T05:34:05.948Z,16.95
2023-03-02T05:38:59.414Z,18.90
2023-03-02T05:41:25.921Z,16.85
2023-03-02T05:43:53.386Z,15.70
2023-03-02T05:46:22.008Z,18.20
2023-03-02T05:48:48.748Z,17.42
2023-03-02T05:51:15.569Z,23.05
2023-03-02T05:53:41.938Z,18.13
2023-03-02T05:56:08.693Z,17.58
2023-03-02T05:58:35.120Z,19.35
2023-03-02T06:01:01.803Z,15.38
2023-03-02T06:03:28.874Z,19.77
2023-03-02T06:05:55.259Z,15.43
2023-03-02T06:08:21.908Z,17.13
2023-03-02T06:10:51.635Z,22.17
2023-03-02T06:13:17.990Z,21.13
2023-03-02T06:15:44.731Z,26.08
2023-03-02T06:18:12.745Z,17.50
2023-03-02T06:20:40.634Z,17.70
2023-03-02T06:23:06.983Z,19.35
2023-03-02T06:25:33.637Z,21.80
2023-03-02T06:27:59.970Z,20.88
2023-03-02T06:30:27.812Z,18.38
2023-03-02T06:32:54.505Z,18.88
2023-03-02T06:35:21.044Z,20.25
2023-03-02T06:37:47.508Z,19.73
2023-03-02T06:40:14.407Z,17.48
2023-03-02T06:42:42.147Z,21.05
2023-03-02T06:45:09.845Z,18.27
2023-03-02T06:47:36.664Z,21.55
2023-03-02T06:50:04.017Z,18.42
2023-03-02T06:52:30.364Z,22.42
2023-03-02T06:54:56.801Z,22.20
2023-03-02T06:57:23.389Z,18.75
2023-03-02T06:59:49.747Z,22.15
2023-03-02T07:02:16.082Z,18.33
2023-03-02T07:04:42.482Z,20.85
2023-03-02T07:07:08.825Z,18.20
2023-03-02T07:09:35.292Z,26.23
2023-03-02T07:12:01.895Z,18.20
2023-03-02T07:14:28.256Z,21.60
2023-03-02T07:16:57.302Z,24.50
2023-03-02T07:19:24.003Z,19.15
2023-03-02T07:21:50.340Z,18.48
2023-03-02T07:24:16.733Z,16.30
2023-03-02T07:26:43.227Z,19.48
2023-03-02T07:29:09.797Z,20.40
2023-03-02T07:31:36.409Z,20.70
2023-03-02T07:34:02.789Z,25.23
2023-03-02T07:36:29.169Z,19.83
2023-03-02T07:38:55.561Z,26.42
2023-03-02T07:41:22.977Z,26.02
2023-03-02T07:43:49.337Z,20.05
2023-03-02T07:46:16.181Z,17.15
2023-03-02T07:48:42.628Z,20.95
2023-03-02T07:51:08.983Z,21.98
2023-03-02T07:53:35.618Z,19.95
2023-03-02T07:56:10.006Z,30.70
2023-03-02T07:58:36.753Z,20.98
2023-03-02T08:01:03.810Z,31.70
2023-03-02T08:03:30.200Z,18.80
2023-03-02T08:05:56.509Z,22.02
2023-03-02T08:08:22.896Z,18.85
2023-03-02T08:10:49.678Z,20.95
2023-03-02T08:13:16.078Z,17.73
2023-03-02T08:15:42.621Z,19.58
2023-03-02T08:18:09.299Z,17.70
2023-03-02T08:20:35.651Z,22.23
2023-03-02T08:23:02.274Z,18.08
2023-03-02T08:25:29.061Z,20.48
2023-03-02T08:27:55.456Z,17.00
2023-03-02T08:30:21.851Z,23.92
2023-03-02T08:32:48.326Z,21.10
2023-03-02T08:35:14.919Z,23.63
2023-03-02T08:37:41.294Z,20.10
2023-03-02T08:40:08.354Z,16.30
2023-03-02T08:42:34.676Z,16.23
2023-03-02T08:45:01.046Z,18.80
2023-03-02T08:47:28.464Z,19.40
2023-03-02T08:49:55.018Z,21.30
2023-03-02T08:52:21.709Z,15.30
2023-03-02T08:54:48.335Z,19.33
2023-03-02T08:57:14.811Z,20.08
2023-03-02T08:59:41.448Z,18.33
2023-03-02T09:02:10.568Z,20.15
2023-03-02T09:04:37.099Z,18.90
2023-03-02T09:07:04.577Z,16.90
2023-03-02T09:09:30.907Z,17.92
2023-03-02T09:11:57.331Z,19.45
2023-03-02T09:14:24.810Z,17.40
2023-03-02T09:16:52.710Z,18.23
2023-03-02T09:19:19.230Z,18.30
2023-03-02T09:21:45.909Z,18.60
2023-03-02T09:24:12.338Z,14.85
2023-03-02T09:26:39.059Z,15.10
2023-03-02T09:29:07.057Z,15.15
2023-03-02T09:31:34.878Z,13.40
2023-03-02T09:34:01.622Z,15.30
2023-03-02T09:36:28.483Z,14.00
2023-03-02T09:38:55.493Z,12.98
2023-03-02T09:41:41.437Z,12.43
2023-03-02T09:44:34.775Z,15.05
2023-03-02T09:47:04.754Z,14.35
2023-03-02T09:49:49.308Z,14.75
2023-03-02T09:52:34.447Z,13.52
2023-03-02T09:55:14.812Z,15.75
2023-03-02T09:57:41.395Z,16.13
2023-03-02T10:00:19.460Z,13.98
2023-03-02T10:02:51.009Z,13.27
2023-03-02T10:05:22.852Z,16.48
2023-03-02T10:07:49.596Z,15.40
2023-03-02T10:10:25.820Z,12.43
2023-03-02T10:13:19.748Z,14.80
2023-03-02T10:15:52.062Z,14.57
2023-03-02T10:18:24.282Z,13.40
2023-03-02T10:21:00.042Z,11.57
2023-03-02T10:24:09.720Z,12.07
2023-03-02T10:26:40.440Z,12.07
2023-03-02T10:29:28.777Z,15.90
2023-03-02T10:34:37.879Z,13.77
2023-03-02T10:37:13.879Z,14.68
2023-03-02T10:39:40.502Z,14.30
2023-03-02T10:42:14.082Z,14.82
2023-03-02T10:44:44.439Z,12.75
2023-03-02T10:47:21.045Z,12.77
2023-03-02T10:49:48.490Z,14.90
2023-03-02T10:52:20.378Z,13.60
2023-03-02T10:54:49.974Z,12.68
2023-03-02T10:58:04.364Z,10.68
2023-03-02T11:00:33.364Z,13.00
2023-03-02T11:03:04.396Z,13.93
2023-03-02T11:05:40.310Z,13.73
2023-03-02T11:08:26.478Z,19.60
2023-03-02T11:11:00.011Z,10.75
2023-03-02T11:13:36.980Z,13.27
2023-03-02T11:16:31.820Z,13.00
2023-03-02T11:19:16.096Z,12.60
2023-03-02T11:22:21.343Z,11.55
2023-03-02T11:24:57.702Z,9.52
2023-03-02T11:27:29.823Z,11.48
2023-03-02T11:30:18.453Z,15.20
2023-03-02T11:33:04.765Z,10.65
2023-03-02T11:35:35.319Z,8.90
2023-03-02T11:38:28.400Z,8.98
2023-03-02T11:41:07.958Z,11.82
2023-03-02T11:43:34.409Z,8.63
2023-03-02T11:46:21.185Z,8.65
2023-03-02T11:48:53.079Z,10.57
2023-03-02T11:51:25.373Z,10.82
2023-03-02T11:53:59.184Z,9.23
2023-03-02T11:56:37.259Z,12.10
2023-03-02T11:59:12.542Z,10.25
2023-03-02T12:01:40.540Z,11.48
2023-03-02T12:04:26.491Z,14.73
2023-03-02T12:06:53.709Z,10.35
2023-03-02T12:09:23.211Z,10.10
2023-03-02T12:12:23.739Z,9.77
2023-03-02T12:14:50.322Z,8.88
2023-03-02T12:17:19.337Z,9.07
2023-03-02T12:19:47.328Z,8.10
2023-03-02T12:22:24.922Z,9.23
2023-03-02T12:25:19.148Z,10.15
2023-03-02T12:27:48.688Z,8.93
2023-03-02T12:30:15.524Z,9.50
2023-03-02T12:32:45.215Z,10.55
2023-03-02T12:35:17.763Z,9.93
2023-03-02T12:38:05.929Z,15.52
2023-03-02T12:40:59.191Z,9.00
2023-03-02T12:43:30.770Z,10.57
2023-03-02T12:46:37.080Z,15.82
2023-03-02T12:49:31.397Z,12.38
2023-03-02T12:52:01.914Z,8.82
2023-03-02T12:54:31.627Z,10.10
2023-03-02T12:57:13.981Z,10.07
2023-03-02T12:59:40.625Z,10.35
2023-03-02T13:02:36.993Z,13.75
2023-03-02T13:05:08.764Z,9.25
2023-03-02T13:07:41.400Z,10.77
2023-03-02T13:10:36.061Z,10.30
2023-03-02T13:13:15.474Z,11.10
2023-03-02T13:18:53.793Z,9.05
2023-03-02T13:21:21.909Z,8.73
2023-03-02T13:23:51.736Z,9.93
2023-03-02T13:26:35.798Z,9.07
2023-03-02T13:29:32.370Z,10.20
2023-03-02T13:32:15.703Z,11.57
2023-03-02T13:34:50.008Z,7.78
2023-03-02T13:37:23.068Z,8.80
2023-03-02T13:39:57.540Z,12.00
2023-03-02T13:42:39.275Z,10.18
2023-03-02T13:45:24.053Z,11.07
2023-03-02T13:47:51.369Z,13.32
2023-03-02T13:50:25.254Z,10.68
2023-03-02T13:52:55.149Z,13.65
2023-03-02T13:55:26.622Z,16.92
2023-03-02T13:57:54.468Z,8.13
2023-03-02T14:00:29.170Z,9.43
2023-03-02T14:02:56.958Z,14.05
2023-03-02T14:05:32.949Z,12.30
2023-03-02T14:08:03.186Z,11.52
2023-03-02T14:10:29.614Z,11.57
2023-03-02T14:13:03.886Z,9.82
2023-03-02T14:15:30.482Z,12.73
2023-03-02T14:17:57.156Z,10.85
2023-03-02T14:20:23.784Z,11.68
2023-03-02T14:22:50.720Z,13.32
2023-03-02T14:25:17.648Z,10.02
2023-03-02T14:27:44.169Z,11.02
2023-03-02T14:30:21.558Z,9.13
2023-03-02T14:32:49.647Z,9.93
2023-03-02T14:35:16.536Z,11.38
2023-03-02T14:37:47.186Z,13.40
2023-03-02T14:40:18.865Z,10.90
2023-03-02T14:42:45.500Z,12.50
2023-03-02T14:45:12.451Z,14.00
2023-03-02T14:47:38.840Z,12.18
2023-03-02T14:50:06.234Z,18.75
2023-03-02T14:52:41.787Z,14.23
2023-03-02T14:55:19.325Z,19.58
2023-03-02T14:57:50.283Z,17.43
2023-03-02T15:00:18.145Z,19.08
2023-03-02T15:02:44.865Z,18.20
2023-03-02T15:05:11.468Z,21.52
2023-03-02T15:07:38.909Z,23.55
2023-03-02T15:10:06.014Z,22.13
2023-03-02T15:12:32.439Z,22.98
2023-03-02T15:15:00.416Z,22.77
2023-03-02T15:17:27.711Z,19.15
2023-03-02T15:19:54.156Z,24.95
2023-03-02T15:22:20.782Z,18.42
2023-03-02T15:24:48.395Z,22.23
2023-03-02T15:27:15.665Z,20.33
2023-03-02T15:29:48.202Z,22.27
2023-03-02T15:32:15.027Z,21.95
2023-03-02T15:34:42.673Z,22.25
2023-03-02T15:37:13.540Z,26.50
2023-03-02T15:39:40.287Z,21.58
2023-03-02T15:42:07.010Z,26.27
2023-03-02T15:44:33.685Z,23.05
2023-03-02T15:47:01.668Z,23.42
2023-03-02T15:49:29.358Z,24.52
2023-03-02T15:51:57.724Z,25.80
2023-03-02T15:54:27.340Z,24.02
2023-03-02T15:56:54.041Z,25.33
2023-03-02T15:59:22.517Z,24.33
2023-03-02T16:01:49.704Z,27.73
2023-03-02T16:04:16.332Z,24.15
2023-03-02T16:06:43.528Z,27.38
2023-03-02T16:09:10.368Z,25.95
2023-03-02T16:11:38.194Z,27.63
2023-03-02T16:14:04.888Z,28.35
2023-03-02T16:16:31.483Z,28.08
2023-03-02T16:18:59.477Z,25.35
2023-03-02T16:21:30.880Z,32.83
2023-03-02T16:24:05.056Z,30.17
2023-03-02T16:26:35.563Z,25.88
2023-03-02T16:29:02.582Z,28.65
2023-03-02T16:31:33.271Z,25.23
2023-03-02T16:34:07.531Z,26.23
2023-03-02T16:36:39.450Z,28.95
2023-03-02T16:39:08.884Z,28.13
2023-03-02T16:41:38.900Z,32.78
2023-03-02T16:44:08.721Z,28.55
2023-03-02T16:46:39.485Z,31.55
2023-03-02T16:49:06.732Z,31.90
2023-03-02T16:51:34.414Z,30.90
2023-03-02T16:54:09.543Z,31.67
2023-03-02T16:56:38.008Z,36.33
2023-03-02T16:59:04.485Z,29.13
2023-03-02T17:01:31.920Z,36.22
2023-03-02T17:04:01.211Z,33.70
2023-03-02T17:06:30.319Z,30.98
2023-03-02T17:08:57.910Z,29.23
2023-03-02T17:11:25.844Z,32.47
2023-03-02T17:13:52.333Z,34.15
2023-03-02T17:16:20.691Z,35.08
2023-03-02T17:18:48.662Z,37.10
2023-03-02T17:21:17.359Z,37.65
2023-03-02T17:23:45.875Z,35.03
2023-03-02T17:28:40.190Z,36.53
2023-03-02T17:31:08.854Z,34.50
2023-03-02T17:33:37.352Z,33.42
2023-03-02T17:36:08.526Z,34.30
2023-03-02T17:38:36.393Z,34.75
2023-03-02T17:41:05.044Z,33.73
2023-03-02T17:43:37.168Z,34.33
2023-03-02T17:46:22.677Z,31.30
2023-03-02T17:48:53.926Z,33.78
2023-03-02T17:51:24.634Z,35.80
2023-03-02T17:53:58.254Z,37.83
2023-03-02T17:56:27.352Z,34.13
2023-03-02T17:58:57.901Z,35.72
2023-03-02T18:01:24.841Z,33.60
2023-03-02T18:03:51.739Z,31.45
2023-03-02T18:06:20.548Z,34.88
2023-03-02T18:08:59.649Z,40.53
2023-03-02T18:11:26.831Z,36.20
2023-03-02T18:13:54.932Z,38.60
2023-03-02T18:16:26.343Z,38.60
2023-03-02T18:18:54.131Z,38.17
2023-03-02T18:21:27.736Z,42.05
2023-03-02T18:23:56.017Z,40.40
2023-03-02T18:26:22.519Z,40.58
2023-03-02T18:28:48.892Z,39.22
2023-03-02T18:31:21.190Z,38.83
2023-03-02T18:33:54.128Z,41.72
2023-03-02T18:36:23.146Z,42.47
2023-03-02T18:38:52.963Z,43.95
2023-03-02T18:41:24.066Z,40.85
2023-03-02T18:43:51.294Z,43.25
2023-03-02T18:46:26.751Z,50.38
2023-03-02T18:48:54.734Z,42.70
2023-03-02T18:51:27.252Z,41.42
2023-03-02T18:53:55.064Z,40.88
2023-03-02T18:59:05.975Z,42.40
2023-03-02T19:01:36.632Z,43.58
2023-03-02T19:04:03.497Z,46.05
2023-03-02T19:06:29.932Z,40.70
2023-03-02T19:08:59.035Z,42.65
2023-03-02T19:11:26.621Z,47.95
2023-03-02T19:13:56.277Z,47.40
2023-03-02T19:16:22.772Z,42.10
2023-03-02T19:18:49.968Z,42.88
2023-03-02T19:21:22.274Z,45.13
2023-03-02T19:23:48.648Z,41.70
2023-03-02T19:26:15.628Z,43.00
2023-03-02T19:28:44.321Z,46.40
2023-03-02T19:31:11.954Z,43.30
2023-03-02T19:33:42.274Z,50.92
2023-03-02T19:36:09.890Z,44.50
2023-03-02T19:38:42.350Z,49.83
2023-03-02T19:41:19.657Z,49.38
2023-03-02T19:43:47.403Z,46.70
2023-03-02T19:46:16.111Z,45.05
2023-03-02T19:48:44.873Z,49.20
2023-03-02T19:51:13.092Z,52.20
2023-03-02T19:53:43.094Z,48.65
2023-03-02T19:56:14.534Z,54.95
2023-03-02T19:58:49.784Z,51.92
2023-03-02T20:01:21.650Z,53.63
2023-03-02T20:03:51.491Z,47.95
2023-03-02T20:06:19.049Z,52.42
2023-03-02T20:08:47.965Z,52.00
2023-03-02T20:11:15.683Z,51.03
2023-03-02T20:13:42.257Z,52.33
2023-03-02T20:16:14.696Z,54.33
2023-03-02T20:18:42.220Z,56.13
2023-03-02T20:21:09.725Z,53.87
2023-03-02T20:23:36.593Z,58.77
2023-03-02T20:26:08.521Z,57.40
2023-03-02T20:28:36.735Z,53.92
2023-03-02T20:31:08.898Z,49.28
2023-03-02T20:33:42.197Z,53.15
2023-03-02T20:36:10.188Z,58.58
2023-03-02T20:38:41.234Z,57.75
2023-03-02T20:41:09.926Z,57.45
2023-03-02T20:43:36.572Z,62.38
2023-03-02T20:46:06.527Z,61.10
2023-03-02T20:48:35.341Z,66.90
2023-03-02T20:51:03.374Z,67.43
2023-03-02T20:53:30.352Z,65.00
2023-03-02T20:56:06.277Z,71.55
2023-03-02T20:58:41.181Z,69.10
2023-03-02T21:01:10.535Z,76.25
2023-03-02T21:03:37.858Z,69.80
2023-03-02T21:06:05.339Z,76.15
2023-03-02T21:08:34.167Z,71.63
2023-03-02T21:11:00.943Z,78.15
2023-03-02T21:13:37.276Z,74.60
2023-03-02T21:16:07.478Z,82.57
2023-03-02T21:18:35.905Z,73.13
2023-03-02T21:21:03.166Z,73.53
2023-03-02T21:23:30.350Z,75.78
2023-03-02T21:25:58.514Z,68.20
2023-03-02T21:28:26.593Z,70.75
2023-03-02T21:30:53.343Z,69.93
2023-03-02T21:33:20.006Z,68.20
2023-03-02T21:35:47.217Z,65.97
2023-03-02T21:38:14.907Z,70.50
2023-03-02T21:40:46.392Z,67.38
2023-03-02T21:43:13.734Z,68.43
2023-03-02T21:45:43.048Z,69.22
2023-03-02T21:48:13.658Z,73.82
2023-03-02T21:50:45.885Z,58.88
2023-03-02T21:53:12.266Z,70.50
2023-03-02T21:55:39.922Z,70.38
2023-03-02T21:58:06.311Z,67.10
2023-03-02T22:00:35.780Z,66.85
2023-03-02T22:03:02.736Z,71.72
2023-03-02T22:05:30.502Z,70.75
2023-03-02T22:07:59.274Z,72.18
2023-03-02T22:10:55.233Z,72.80
2023-03-02T22:13:27.071Z,71.38
2023-03-02T22:16:18.170Z,70.50
2023-03-02T22:18:48.855Z,73.10
2023-03-02T22:21:38.153Z,73.65
2023-03-02T22:24:11.630Z,69.32
2023-03-02T22:26:47.619Z,67.22
2023-03-02T22:29:37.574Z,68.50
2023-03-02T22:32:17.903Z,66.75
2023-03-02T22:34:46.551Z,60.30
2023-03-02T22:37:22.770Z,67.57
2023-03-02T22:39:53.364Z,68.70
2023-03-02T22:42:22.496Z,59.90
2023-03-02T22:44:59.572Z,59.38
2023-03-02T22:47:28.047Z,64.77
2023-03-02T22:50:18.963Z,65.28
2023-03-02T22:52:46.986Z,68.40
2023-03-02T22:55:39.351Z,66.18
2023-03-02T22:58:30.551Z,71.45
2023-03-02T23:01:03.039Z,62.85
2023-03-02T23:03:44.785Z,66.32
2023-03-02T23:06:25.509Z,68.80
2023-03-02T23:08:56.422Z,62.55
2023-03-02T23:11:27.338Z,65.85
2023-03-02T23:13:54.556Z,63.83
2023-03-02T23:16:30.003Z,68.05
2023-03-02T23:18:59.722Z,68.15
2023-03-02T23:21:48.054Z,68.35
2023-03-02T23:24:20.584Z,66.68
2023-03-02T23:26:48.031Z,68.22
2023-03-02T23:29:20.251Z,67.40
2023-03-02T23:31:47.109Z,65.72
2023-03-02T23:34:17.014Z,65.90
2023-03-02T23:36:44.441Z,68.50
2023-03-02T23:39:11.535Z,63.75
2023-03-02T23:41:39.579Z,62.97
2023-03-02T23:44:08.860Z,67.70
2023-03-02T23:46:43.803Z,64.65
2023-03-02T23:49:12.343Z,67.68
2023-03-02T23:51:41.115Z,61.95
2023-03-02T23:54:07.992Z,61.65
2023-03-02T23:56:34.474Z,69.70
2023-03-02T23:59:02.732Z,68.50
